sensor_id;sensor_type;location;lat;lon;timestamp;P1;durP1;ratioP1;P2;durP2;ratioP2
71622;SDS011;59473;53.214;5.728;2024-02-15T00:00:47;19.88;;;6.75;;
71622;SDS011;59473;53.214;5.728;2024-02-15T00:03:13;37.07;;;7.13;;
71622;SDS011;59473;53.214;5.728;2024-02-15T00:05:38;26.67;;;6.70;;
71622;SDS011;59473;53.214;5.728;2024-02-15T00:08:04;24.15;;;6.57;;
71622;SDS011;59473;53.214;5.728;2024-02-15T00:10:29;17.70;;;5.57;;
71622;SDS011;59473;53.214;5.728;2024-02-15T00:12:54;24.50;;;6.60;;
71622;SDS011;59473;53.214;5.728;2024-02-15T00:15:20;35.03;;;6.20;;
71622;SDS011;59473;53.214;5.728;2024-02-15T00:17:45;23.27;;;6.60;;
71622;SDS011;59473;53.214;5.728;2024-02-15T00:20:11;22.02;;;5.68;;
71622;SDS011;59473;53.214;5.728;2024-02-15T00:22:37;26.70;;;6.60;;
71622;SDS011;59473;53.214;5.728;2024-02-15T00:25:03;23.33;;;5.60;;
71622;SDS011;59473;53.214;5.728;2024-02-15T00:27:30;25.52;;;5.30;;
71622;SDS011;59473;53.214;5.728;2024-02-15T00:29:57;26.90;;;5.57;;
71622;SDS011;59473;53.214;5.728;2024-02-15T00:32:23;29.87;;;5.87;;
71622;SDS011;59473;53.214;5.728;2024-02-15T00:34:48;27.30;;;6.37;;
71622;SDS011;59473;53.214;5.728;2024-02-15T00:37:14;26.80;;;6.63;;
71622;SDS011;59473;53.214;5.728;2024-02-15T00:39:39;27.73;;;5.97;;
71622;SDS011;59473;53.214;5.728;2024-02-15T00:42:04;33.50;;;6.67;;
71622;SDS011;59473;53.214;5.728;2024-02-15T00:44:33;32.50;;;7.40;;
71622;SDS011;59473;53.214;5.728;2024-02-15T00:46:59;27.50;;;6.40;;
71622;SDS011;59473;53.214;5.728;2024-02-15T00:49:24;22.20;;;6.10;;
71622;SDS011;59473;53.214;5.728;2024-02-15T00:51:52;27.60;;;6.10;;
71622;SDS011;59473;53.214;5.728;2024-02-15T00:54:17;26.07;;;6.20;;
71622;SDS011;59473;53.214;5.728;2024-02-15T00:56:43;29.40;;;5.50;;
71622;SDS011;59473;53.214;5.728;2024-02-15T00:59:08;30.00;;;6.57;;
71622;SDS011;59473;53.214;5.728;2024-02-15T01:01:34;21.97;;;5.60;;
71622;SDS011;59473;53.214;5.728;2024-02-15T01:04:01;18.02;;;5.28;;
71622;SDS011;59473;53.214;5.728;2024-02-15T01:06:27;26.30;;;5.72;;
71622;SDS011;59473;53.214;5.728;2024-02-15T01:08:52;30.73;;;5.80;;
71622;SDS011;59473;53.214;5.728;2024-02-15T01:11:17;29.93;;;5.30;;
71622;SDS011;59473;53.214;5.728;2024-02-15T01:13:43;22.53;;;5.50;;
71622;SDS011;59473;53.214;5.728;2024-02-15T01:16:09;24.10;;;5.53;;
71622;SDS011;59473;53.214;5.728;2024-02-15T01:18:34;19.53;;;4.83;;
71622;SDS011;59473;53.214;5.728;2024-02-15T01:21:00;20.80;;;5.37;;
71622;SDS011;59473;53.214;5.728;2024-02-15T01:23:25;25.10;;;5.17;;
71622;SDS011;59473;53.214;5.728;2024-02-15T01:25:52;27.75;;;5.95;;
71622;SDS011;59473;53.214;5.728;2024-02-15T01:28:17;21.20;;;5.20;;
71622;SDS011;59473;53.214;5.728;2024-02-15T01:30:43;23.75;;;5.25;;
71622;SDS011;59473;53.214;5.728;2024-02-15T01:33:11;21.57;;;5.47;;
71622;SDS011;59473;53.214;5.728;2024-02-15T01:35:37;17.25;;;4.95;;
71622;SDS011;59473;53.214;5.728;2024-02-15T01:38:02;20.63;;;4.33;;
71622;SDS011;59473;53.214;5.728;2024-02-15T01:40:28;22.07;;;5.10;;
71622;SDS011;59473;53.214;5.728;2024-02-15T01:42:53;21.53;;;4.97;;
71622;SDS011;59473;53.214;5.728;2024-02-15T01:45:18;26.47;;;5.47;;
71622;SDS011;59473;53.214;5.728;2024-02-15T01:47:44;24.40;;;5.13;;
71622;SDS011;59473;53.214;5.728;2024-02-15T01:50:12;22.10;;;5.00;;
71622;SDS011;59473;53.214;5.728;2024-02-15T01:52:39;16.80;;;4.50;;
71622;SDS011;59473;53.214;5.728;2024-02-15T01:55:04;20.85;;;5.32;;
71622;SDS011;59473;53.214;5.728;2024-02-15T01:57:33;14.57;;;4.53;;
71622;SDS011;59473;53.214;5.728;2024-02-15T01:59:58;19.80;;;4.97;;
71622;SDS011;59473;53.214;5.728;2024-02-15T02:02:24;16.20;;;4.97;;
71622;SDS011;59473;53.214;5.728;2024-02-15T02:04:50;21.95;;;4.70;;
71622;SDS011;59473;53.214;5.728;2024-02-15T02:07:15;16.40;;;5.37;;
71622;SDS011;59473;53.214;5.728;2024-02-15T02:09:40;21.57;;;4.37;;
71622;SDS011;59473;53.214;5.728;2024-02-15T02:12:06;18.57;;;5.17;;
71622;SDS011;59473;53.214;5.728;2024-02-15T02:14:32;23.67;;;5.45;;
71622;SDS011;59473;53.214;5.728;2024-02-15T02:17:10;22.57;;;6.00;;
71622;SDS011;59473;53.214;5.728;2024-02-15T02:19:35;20.88;;;5.35;;
71622;SDS011;59473;53.214;5.728;2024-02-15T02:22:03;23.85;;;5.85;;
71622;SDS011;59473;53.214;5.728;2024-02-15T02:24:30;24.27;;;6.93;;
71622;SDS011;59473;53.214;5.728;2024-02-15T02:27:00;20.30;;;6.90;;
71622;SDS011;59473;53.214;5.728;2024-02-15T02:29:25;27.23;;;6.33;;
71622;SDS011;59473;53.214;5.728;2024-02-15T02:31:50;21.27;;;7.03;;
71622;SDS011;59473;53.214;5.728;2024-02-15T02:34:15;17.07;;;6.20;;
71622;SDS011;59473;53.214;5.728;2024-02-15T02:36:43;19.30;;;6.50;;
71622;SDS011;59473;53.214;5.728;2024-02-15T02:39:08;24.05;;;6.72;;
71622;SDS011;59473;53.214;5.728;2024-02-15T02:41:34;21.83;;;7.07;;
71622;SDS011;59473;53.214;5.728;2024-02-15T02:43:59;22.57;;;6.53;;
71622;SDS011;59473;53.214;5.728;2024-02-15T02:46:24;28.03;;;7.43;;
71622;SDS011;59473;53.214;5.728;2024-02-15T02:48:49;27.53;;;7.17;;
71622;SDS011;59473;53.214;5.728;2024-02-15T02:51:15;22.20;;;6.70;;
71622;SDS011;59473;53.214;5.728;2024-02-15T02:53:40;27.53;;;6.43;;
71622;SDS011;59473;53.214;5.728;2024-02-15T02:56:05;25.97;;;6.30;;
71622;SDS011;59473;53.214;5.728;2024-02-15T02:58:33;23.45;;;6.50;;
71622;SDS011;59473;53.214;5.728;2024-02-15T03:00:58;30.17;;;6.27;;
71622;SDS011;59473;53.214;5.728;2024-02-15T03:03:25;26.90;;;5.57;;
71622;SDS011;59473;53.214;5.728;2024-02-15T03:05:50;23.30;;;5.27;;
71622;SDS011;59473;53.214;5.728;2024-02-15T03:08:16;23.30;;;5.47;;
71622;SDS011;59473;53.214;5.728;2024-02-15T03:10:42;30.88;;;6.13;;
71622;SDS011;59473;53.214;5.728;2024-02-15T03:13:07;28.03;;;5.47;;
71622;SDS011;59473;53.214;5.728;2024-02-15T03:15:34;31.65;;;6.05;;
71622;SDS011;59473;53.214;5.728;2024-02-15T03:17:59;35.93;;;6.67;;
71622;SDS011;59473;53.214;5.728;2024-02-15T03:20:24;27.97;;;6.67;;
71622;SDS011;59473;53.214;5.728;2024-02-15T03:23:00;28.80;;;7.30;;
71622;SDS011;59473;53.214;5.728;2024-02-15T03:25:25;39.17;;;8.27;;
71622;SDS011;59473;53.214;5.728;2024-02-15T03:27:51;36.75;;;7.93;;
71622;SDS011;59473;53.214;5.728;2024-02-15T03:30:18;31.73;;;7.78;;
71622;SDS011;59473;53.214;5.728;2024-02-15T03:32:44;44.15;;;9.57;;
71622;SDS011;59473;53.214;5.728;2024-02-15T03:35:09;33.07;;;8.03;;
71622;SDS011;59473;53.214;5.728;2024-02-15T03:37:35;29.13;;;7.77;;
71622;SDS011;59473;53.214;5.728;2024-02-15T03:40:03;35.08;;;8.73;;
71622;SDS011;59473;53.214;5.728;2024-02-15T03:42:29;31.70;;;7.80;;
71622;SDS011;59473;53.214;5.728;2024-02-15T03:44:55;31.45;;;7.53;;
71622;SDS011;59473;53.214;5.728;2024-02-15T03:47:20;31.37;;;7.57;;
71622;SDS011;59473;53.214;5.728;2024-02-15T03:49:46;25.08;;;7.28;;
71622;SDS011;59473;53.214;5.728;2024-02-15T03:52:11;26.00;;;6.80;;
71622;SDS011;59473;53.214;5.728;2024-02-15T03:54:36;26.27;;;6.40;;
71622;SDS011;59473;53.214;5.728;2024-02-15T03:57:02;24.97;;;7.20;;
71622;SDS011;59473;53.214;5.728;2024-02-15T03:59:27;34.23;;;8.10;;
71622;SDS011;59473;53.214;5.728;2024-02-15T04:01:52;33.50;;;8.43;;
71622;SDS011;59473;53.214;5.728;2024-02-15T04:04:18;31.43;;;8.50;;
71622;SDS011;59473;53.214;5.728;2024-02-15T04:06:43;28.27;;;9.07;;
71622;SDS011;59473;53.214;5.728;2024-02-15T04:09:08;32.33;;;8.90;;
71622;SDS011;59473;53.214;5.728;2024-02-15T04:11:35;26.42;;;8.93;;
71622;SDS011;59473;53.214;5.728;2024-02-15T04:14:02;31.20;;;8.35;;
71622;SDS011;59473;53.214;5.728;2024-02-15T04:16:27;23.80;;;7.70;;
71622;SDS011;59473;53.214;5.728;2024-02-15T04:18:55;26.38;;;7.20;;
71622;SDS011;59473;53.214;5.728;2024-02-15T04:21:22;29.17;;;6.67;;
71622;SDS011;59473;53.214;5.728;2024-02-15T04:23:47;33.60;;;6.88;;
71622;SDS011;59473;53.214;5.728;2024-02-15T04:26:13;27.30;;;7.40;;
71622;SDS011;59473;53.214;5.728;2024-02-15T04:28:39;32.60;;;7.73;;
71622;SDS011;59473;53.214;5.728;2024-02-15T04:31:04;33.10;;;8.68;;
71622;SDS011;59473;53.214;5.728;2024-02-15T04:33:33;33.53;;;9.33;;
71622;SDS011;59473;53.214;5.728;2024-02-15T04:35:58;32.83;;;9.68;;
71622;SDS011;59473;53.214;5.728;2024-02-15T04:38:23;33.50;;;10.25;;
71622;SDS011;59473;53.214;5.728;2024-02-15T04:40:50;31.73;;;11.52;;
71622;SDS011;59473;53.214;5.728;2024-02-15T04:43:16;36.10;;;11.50;;
71622;SDS011;59473;53.214;5.728;2024-02-15T04:45:41;29.40;;;9.80;;
71622;SDS011;59473;53.214;5.728;2024-02-15T04:48:06;35.30;;;10.97;;
71622;SDS011;59473;53.214;5.728;2024-02-15T04:50:32;35.97;;;11.60;;
71622;SDS011;59473;53.214;5.728;2024-02-15T04:52:57;38.83;;;11.00;;
71622;SDS011;59473;53.214;5.728;2024-02-15T04:55:22;33.17;;;10.90;;
71622;SDS011;59473;53.214;5.728;2024-02-15T04:57:48;34.97;;;11.55;;
71622;SDS011;59473;53.214;5.728;2024-02-15T05:00:13;33.15;;;10.27;;
71622;SDS011;59473;53.214;5.728;2024-02-15T05:02:40;30.60;;;10.88;;
71622;SDS011;59473;53.214;5.728;2024-02-15T05:05:06;28.40;;;11.13;;
71622;SDS011;59473;53.214;5.728;2024-02-15T05:07:32;30.40;;;11.35;;
71622;SDS011;59473;53.214;5.728;2024-02-15T05:09:58;30.20;;;11.80;;
71622;SDS011;59473;53.214;5.728;2024-02-15T05:12:23;32.27;;;11.17;;
71622;SDS011;59473;53.214;5.728;2024-02-15T05:14:52;28.83;;;11.20;;
71622;SDS011;59473;53.214;5.728;2024-02-15T05:17:18;32.17;;;11.40;;
71622;SDS011;59473;53.214;5.728;2024-02-15T05:19:43;29.93;;;11.40;;
71622;SDS011;59473;53.214;5.728;2024-02-15T05:22:09;32.53;;;11.20;;
71622;SDS011;59473;53.214;5.728;2024-02-15T05:24:36;26.15;;;10.75;;
71622;SDS011;59473;53.214;5.728;2024-02-15T05:27:01;28.43;;;11.10;;
71622;SDS011;59473;53.214;5.728;2024-02-15T05:29:26;37.87;;;11.10;;
71622;SDS011;59473;53.214;5.728;2024-02-15T05:31:53;31.35;;;12.40;;
71622;SDS011;59473;53.214;5.728;2024-02-15T05:34:19;37.83;;;12.07;;
71622;SDS011;59473;53.214;5.728;2024-02-15T05:36:44;36.07;;;12.10;;
71622;SDS011;59473;53.214;5.728;2024-02-15T05:39:10;38.03;;;12.10;;
71622;SDS011;59473;53.214;5.728;2024-02-15T05:41:36;32.33;;;11.48;;
71622;SDS011;59473;53.214;5.728;2024-02-15T05:44:01;40.57;;;13.17;;
71622;SDS011;59473;53.214;5.728;2024-02-15T05:46:29;29.83;;;12.10;;
71622;SDS011;59473;53.214;5.728;2024-02-15T05:48:55;35.00;;;12.35;;
71622;SDS011;59473;53.214;5.728;2024-02-15T05:51:21;37.53;;;12.43;;
71622;SDS011;59473;53.214;5.728;2024-02-15T05:53:46;35.47;;;13.03;;
71622;SDS011;59473;53.214;5.728;2024-02-15T05:56:12;34.75;;;12.52;;
71622;SDS011;59473;53.214;5.728;2024-02-15T05:58:38;37.00;;;12.20;;
71622;SDS011;59473;53.214;5.728;2024-02-15T06:01:05;31.35;;;12.27;;
71622;SDS011;59473;53.214;5.728;2024-02-15T06:03:31;39.35;;;13.52;;
71622;SDS011;59473;53.214;5.728;2024-02-15T06:05:58;35.53;;;11.77;;
71622;SDS011;59473;53.214;5.728;2024-02-15T06:08:24;35.22;;;11.50;;
71622;SDS011;59473;53.214;5.728;2024-02-15T06:10:50;36.00;;;12.63;;
71622;SDS011;59473;53.214;5.728;2024-02-15T06:13:15;38.03;;;11.93;;
71622;SDS011;59473;53.214;5.728;2024-02-15T06:15:40;36.87;;;12.23;;
71622;SDS011;59473;53.214;5.728;2024-02-15T06:18:06;34.07;;;12.43;;
71622;SDS011;59473;53.214;5.728;2024-02-15T06:20:34;32.20;;;12.25;;
71622;SDS011;59473;53.214;5.728;2024-02-15T06:23:00;41.90;;;12.70;;
71622;SDS011;59473;53.214;5.728;2024-02-15T06:25:26;33.13;;;11.97;;
71622;SDS011;59473;53.214;5.728;2024-02-15T06:27:52;29.95;;;12.00;;
71622;SDS011;59473;53.214;5.728;2024-02-15T06:30:23;38.70;;;11.90;;
71622;SDS011;59473;53.214;5.728;2024-02-15T06:33:07;38.45;;;11.88;;
71622;SDS011;59473;53.214;5.728;2024-02-15T06:35:51;39.85;;;12.55;;
71622;SDS011;59473;53.214;5.728;2024-02-15T06:38:35;36.45;;;12.02;;
71622;SDS011;59473;53.214;5.728;2024-02-15T06:41:18;41.00;;;12.53;;
71622;SDS011;59473;53.214;5.728;2024-02-15T06:43:44;35.28;;;12.73;;
71622;SDS011;59473;53.214;5.728;2024-02-15T06:46:09;35.23;;;12.57;;
71622;SDS011;59473;53.214;5.728;2024-02-15T06:48:36;33.63;;;12.60;;
71622;SDS011;59473;53.214;5.728;2024-02-15T06:51:01;41.00;;;13.60;;
71622;SDS011;59473;53.214;5.728;2024-02-15T06:53:28;32.17;;;12.93;;
71622;SDS011;59473;53.214;5.728;2024-02-15T06:55:53;37.27;;;13.83;;
71622;SDS011;59473;53.214;5.728;2024-02-15T06:58:18;38.00;;;13.33;;
71622;SDS011;59473;53.214;5.728;2024-02-15T07:00:45;40.35;;;13.48;;
71622;SDS011;59473;53.214;5.728;2024-02-15T07:03:10;36.23;;;13.40;;
71622;SDS011;59473;53.214;5.728;2024-02-15T07:05:38;39.00;;;13.80;;
71622;SDS011;59473;53.214;5.728;2024-02-15T07:08:04;35.93;;;12.07;;
71622;SDS011;59473;53.214;5.728;2024-02-15T07:10:30;43.00;;;13.30;;
71622;SDS011;59473;53.214;5.728;2024-02-15T07:12:56;40.58;;;13.60;;
71622;SDS011;59473;53.214;5.728;2024-02-15T07:15:21;40.97;;;13.47;;
71622;SDS011;59473;53.214;5.728;2024-02-15T07:17:46;44.03;;;15.17;;
71622;SDS011;59473;53.214;5.728;2024-02-15T07:20:13;42.78;;;15.02;;
71622;SDS011;59473;53.214;5.728;2024-02-15T07:22:42;41.78;;;13.55;;
71622;SDS011;59473;53.214;5.728;2024-02-15T07:25:07;41.77;;;15.50;;
71622;SDS011;59473;53.214;5.728;2024-02-15T07:27:33;41.33;;;14.20;;
71622;SDS011;59473;53.214;5.728;2024-02-15T07:30:00;34.03;;;13.88;;
71622;SDS011;59473;53.214;5.728;2024-02-15T07:32:25;36.30;;;14.07;;
71622;SDS011;59473;53.214;5.728;2024-02-15T07:34:51;40.07;;;13.63;;
71622;SDS011;59473;53.214;5.728;2024-02-15T07:37:17;49.90;;;15.75;;
71622;SDS011;59473;53.214;5.728;2024-02-15T07:39:42;41.23;;;14.37;;
71622;SDS011;59473;53.214;5.728;2024-02-15T07:42:07;38.97;;;13.95;;
71622;SDS011;59473;53.214;5.728;2024-02-15T07:44:35;40.78;;;14.32;;
71622;SDS011;59473;53.214;5.728;2024-02-15T07:47:01;41.72;;;13.88;;
71622;SDS011;59473;53.214;5.728;2024-02-15T07:49:27;35.03;;;12.57;;
71622;SDS011;59473;53.214;5.728;2024-02-15T07:51:52;34.97;;;13.57;;
71622;SDS011;59473;53.214;5.728;2024-02-15T07:54:21;55.20;;;25.20;;
71622;SDS011;59473;53.214;5.728;2024-02-15T07:56:49;99.50;;;52.40;;
71622;SDS011;59473;53.214;5.728;2024-02-15T07:59:15;64.32;;;29.13;;
71622;SDS011;59473;53.214;5.728;2024-02-15T08:01:44;43.63;;;18.15;;
71622;SDS011;59473;53.214;5.728;2024-02-15T08:04:11;38.33;;;14.05;;
71622;SDS011;59473;53.214;5.728;2024-02-15T08:06:36;34.97;;;14.77;;
71622;SDS011;59473;53.214;5.728;2024-02-15T08:09:03;45.90;;;15.32;;
71622;SDS011;59473;53.214;5.728;2024-02-15T08:11:31;44.40;;;14.98;;
71622;SDS011;59473;53.214;5.728;2024-02-15T08:13:56;44.53;;;14.57;;
71622;SDS011;59473;53.214;5.728;2024-02-15T08:16:24;46.40;;;14.73;;
71622;SDS011;59473;53.214;5.728;2024-02-15T08:18:52;42.13;;;14.57;;
71622;SDS011;59473;53.214;5.728;2024-02-15T08:21:24;51.75;;;16.77;;
71622;SDS011;59473;53.214;5.728;2024-02-15T08:23:50;52.63;;;17.00;;
71622;SDS011;59473;53.214;5.728;2024-02-15T08:26:15;47.30;;;16.93;;
71622;SDS011;59473;53.214;5.728;2024-02-15T08:28:41;45.17;;;16.88;;
71622;SDS011;59473;53.214;5.728;2024-02-15T08:31:07;44.90;;;15.20;;
71622;SDS011;59473;53.214;5.728;2024-02-15T08:33:35;42.43;;;16.43;;
71622;SDS011;59473;53.214;5.728;2024-02-15T08:36:01;45.22;;;15.90;;
71622;SDS011;59473;53.214;5.728;2024-02-15T08:38:27;39.17;;;14.57;;
71622;SDS011;59473;53.214;5.728;2024-02-15T08:40:52;47.47;;;15.10;;
71622;SDS011;59473;53.214;5.728;2024-02-15T08:43:18;34.43;;;14.53;;
71622;SDS011;59473;53.214;5.728;2024-02-15T08:45:43;45.33;;;16.80;;
71622;SDS011;59473;53.214;5.728;2024-02-15T08:48:09;38.88;;;15.07;;
71622;SDS011;59473;53.214;5.728;2024-02-15T08:50:34;40.70;;;14.53;;
71622;SDS011;59473;53.214;5.728;2024-02-15T08:52:59;44.17;;;16.03;;
71622;SDS011;59473;53.214;5.728;2024-02-15T08:55:25;52.00;;;15.87;;
71622;SDS011;59473;53.214;5.728;2024-02-15T08:57:52;42.10;;;15.38;;
71622;SDS011;59473;53.214;5.728;2024-02-15T09:00:18;39.45;;;15.40;;
71622;SDS011;59473;53.214;5.728;2024-02-15T09:02:43;44.50;;;15.43;;
71622;SDS011;59473;53.214;5.728;2024-02-15T09:05:09;40.77;;;14.93;;
71622;SDS011;59473;53.214;5.728;2024-02-15T09:07:34;44.22;;;15.48;;
71622;SDS011;59473;53.214;5.728;2024-02-15T09:10:01;31.90;;;12.10;;
71622;SDS011;59473;53.214;5.728;2024-02-15T09:12:26;41.20;;;14.60;;
71622;SDS011;59473;53.214;5.728;2024-02-15T09:14:52;37.47;;;13.53;;
71622;SDS011;59473;53.214;5.728;2024-02-15T09:17:17;36.60;;;14.10;;
71622;SDS011;59473;53.214;5.728;2024-02-15T09:19:42;40.37;;;14.27;;
71622;SDS011;59473;53.214;5.728;2024-02-15T09:22:08;39.13;;;12.87;;
71622;SDS011;59473;53.214;5.728;2024-02-15T09:24:33;36.70;;;14.73;;
71622;SDS011;59473;53.214;5.728;2024-02-15T09:26:59;36.07;;;13.87;;
71622;SDS011;59473;53.214;5.728;2024-02-15T09:29:26;33.40;;;13.10;;
71622;SDS011;59473;53.214;5.728;2024-02-15T09:31:51;34.43;;;12.70;;
71622;SDS011;59473;53.214;5.728;2024-02-15T09:34:17;35.05;;;13.20;;
71622;SDS011;59473;53.214;5.728;2024-02-15T09:36:43;35.83;;;12.63;;
71622;SDS011;59473;53.214;5.728;2024-02-15T09:39:08;24.13;;;11.53;;
71622;SDS011;59473;53.214;5.728;2024-02-15T09:41:33;30.63;;;12.30;;
71622;SDS011;59473;53.214;5.728;2024-02-15T09:43:59;25.80;;;11.00;;
71622;SDS011;59473;53.214;5.728;2024-02-15T09:46:26;27.52;;;11.65;;
71622;SDS011;59473;53.214;5.728;2024-02-15T09:48:51;72.20;;;24.60;;
71622;SDS011;59473;53.214;5.728;2024-02-15T09:51:23;42.58;;;16.42;;
71622;SDS011;59473;53.214;5.728;2024-02-15T09:53:50;23.90;;;10.30;;
71622;SDS011;59473;53.214;5.728;2024-02-15T09:56:16;23.40;;;9.60;;
71622;SDS011;59473;53.214;5.728;2024-02-15T09:58:43;22.23;;;8.88;;
71622;SDS011;59473;53.214;5.728;2024-02-15T10:01:08;23.70;;;9.63;;
71622;SDS011;59473;53.214;5.728;2024-02-15T10:03:36;23.33;;;9.00;;
71622;SDS011;59473;53.214;5.728;2024-02-15T10:06:02;22.88;;;9.60;;
71622;SDS011;59473;53.214;5.728;2024-02-15T10:08:27;27.07;;;9.73;;
71622;SDS011;59473;53.214;5.728;2024-02-15T10:11:05;24.43;;;9.60;;
71622;SDS011;59473;53.214;5.728;2024-02-15T10:13:30;23.73;;;9.30;;
71622;SDS011;59473;53.214;5.728;2024-02-15T10:15:56;20.52;;;10.02;;
71622;SDS011;59473;53.214;5.728;2024-02-15T10:18:22;21.30;;;9.90;;
71622;SDS011;59473;53.214;5.728;2024-02-15T10:20:47;22.53;;;10.93;;
71622;SDS011;59473;53.214;5.728;2024-02-15T10:23:22;22.90;;;11.30;;
71622;SDS011;59473;53.214;5.728;2024-02-15T10:25:47;26.92;;;10.85;;
71622;SDS011;59473;53.214;5.728;2024-02-15T10:28:12;35.95;;;15.90;;
71622;SDS011;59473;53.214;5.728;2024-02-15T10:30:42;21.57;;;10.73;;
71622;SDS011;59473;53.214;5.728;2024-02-15T10:33:10;20.63;;;10.55;;
71622;SDS011;59473;53.214;5.728;2024-02-15T10:35:43;23.45;;;12.60;;
71622;SDS011;59473;53.214;5.728;2024-02-15T10:38:08;20.73;;;9.83;;
71622;SDS011;59473;53.214;5.728;2024-02-15T10:40:34;27.98;;;13.13;;
71622;SDS011;59473;53.214;5.728;2024-02-15T10:43:01;31.27;;;12.87;;
71622;SDS011;59473;53.214;5.728;2024-02-15T10:45:27;35.95;;;15.75;;
71622;SDS011;59473;53.214;5.728;2024-02-15T10:47:54;20.05;;;10.73;;
71622;SDS011;59473;53.214;5.728;2024-02-15T10:50:19;19.50;;;9.77;;
71622;SDS011;59473;53.214;5.728;2024-02-15T10:52:55;31.67;;;13.88;;
71622;SDS011;59473;53.214;5.728;2024-02-15T10:55:36;22.05;;;10.93;;
71622;SDS011;59473;53.214;5.728;2024-02-15T10:58:03;16.10;;;8.27;;
71622;SDS011;59473;53.214;5.728;2024-02-15T11:00:30;26.02;;;11.90;;
71622;SDS011;59473;53.214;5.728;2024-02-15T11:03:01;16.95;;;8.85;;
71622;SDS011;59473;53.214;5.728;2024-02-15T11:05:27;21.25;;;10.68;;
71622;SDS011;59473;53.214;5.728;2024-02-15T11:07:54;20.15;;;9.68;;
71622;SDS011;59473;53.214;5.728;2024-02-15T11:10:20;24.90;;;11.67;;
71622;SDS011;59473;53.214;5.728;2024-02-15T11:12:46;23.58;;;12.02;;
71622;SDS011;59473;53.214;5.728;2024-02-15T11:15:12;22.63;;;10.27;;
71622;SDS011;59473;53.214;5.728;2024-02-15T11:17:58;21.52;;;10.48;;
71622;SDS011;59473;53.214;5.728;2024-02-15T11:22:57;19.25;;;9.32;;
71622;SDS011;59473;53.214;5.728;2024-02-15T11:25:57;23.30;;;10.38;;
71622;SDS011;59473;53.214;5.728;2024-02-15T11:30:48;31.25;;;11.98;;
71622;SDS011;59473;53.214;5.728;2024-02-15T11:33:29;34.45;;;12.73;;
71622;SDS011;59473;53.214;5.728;2024-02-15T11:36:13;28.60;;;11.77;;
71622;SDS011;59473;53.214;5.728;2024-02-15T11:38:39;27.25;;;10.82;;
71622;SDS011;59473;53.214;5.728;2024-02-15T11:41:10;29.98;;;10.77;;
71622;SDS011;59473;53.214;5.728;2024-02-15T11:46:23;31.35;;;11.43;;
71622;SDS011;59473;53.214;5.728;2024-02-15T11:48:59;46.03;;;12.30;;
71622;SDS011;59473;53.214;5.728;2024-02-15T11:54:02;34.35;;;11.27;;
71622;SDS011;59473;53.214;5.728;2024-02-15T11:56:31;40.10;;;11.20;;
71622;SDS011;59473;53.214;5.728;2024-02-15T11:59:04;36.92;;;11.77;;
71622;SDS011;59473;53.214;5.728;2024-02-15T12:01:31;58.23;;;18.23;;
71622;SDS011;59473;53.214;5.728;2024-02-15T12:04:15;55.92;;;15.48;;
71622;SDS011;59473;53.214;5.728;2024-02-15T12:06:59;53.28;;;16.60;;
71622;SDS011;59473;53.214;5.728;2024-02-15T12:09:43;44.45;;;14.90;;
71622;SDS011;59473;53.214;5.728;2024-02-15T12:12:27;43.72;;;14.25;;
71622;SDS011;59473;53.214;5.728;2024-02-15T12:15:11;45.93;;;13.87;;
71622;SDS011;59473;53.214;5.728;2024-02-15T12:17:57;42.53;;;14.10;;
71622;SDS011;59473;53.214;5.728;2024-02-15T12:20:56;36.50;;;13.10;;
71622;SDS011;59473;53.214;5.728;2024-02-15T12:23:21;38.17;;;13.53;;
71622;SDS011;59473;53.214;5.728;2024-02-15T12:25:51;37.97;;;12.73;;
71622;SDS011;59473;53.214;5.728;2024-02-15T12:28:16;26.20;;;11.75;;
71622;SDS011;59473;53.214;5.728;2024-02-15T12:30:41;32.93;;;13.07;;
71622;SDS011;59473;53.214;5.728;2024-02-15T12:33:10;37.63;;;12.55;;
71622;SDS011;59473;53.214;5.728;2024-02-15T12:35:36;28.17;;;12.95;;
71622;SDS011;59473;53.214;5.728;2024-02-15T12:38:02;31.30;;;14.97;;
71622;SDS011;59473;53.214;5.728;2024-02-15T12:40:30;36.50;;;14.70;;
71622;SDS011;59473;53.214;5.728;2024-02-15T12:42:56;39.85;;;18.00;;
71622;SDS011;59473;53.214;5.728;2024-02-15T12:45:21;36.57;;;16.10;;
71622;SDS011;59473;53.214;5.728;2024-02-15T12:47:49;45.37;;;19.33;;
71622;SDS011;59473;53.214;5.728;2024-02-15T12:50:15;32.42;;;14.15;;
71622;SDS011;59473;53.214;5.728;2024-02-15T12:52:41;35.08;;;14.05;;
71622;SDS011;59473;53.214;5.728;2024-02-15T12:55:12;39.00;;;14.10;;
71622;SDS011;59473;53.214;5.728;2024-02-15T12:57:39;34.50;;;13.88;;
71622;SDS011;59473;53.214;5.728;2024-02-15T13:00:10;35.92;;;13.75;;
71622;SDS011;59473;53.214;5.728;2024-02-15T13:02:39;36.90;;;16.63;;
71622;SDS011;59473;53.214;5.728;2024-02-15T13:05:05;39.23;;;15.40;;
71622;SDS011;59473;53.214;5.728;2024-02-15T13:07:30;35.85;;;15.02;;
71622;SDS011;59473;53.214;5.728;2024-02-15T13:09:56;35.88;;;16.42;;
71622;SDS011;59473;53.214;5.728;2024-02-15T13:12:21;45.27;;;16.37;;
71622;SDS011;59473;53.214;5.728;2024-02-15T13:14:46;39.30;;;15.13;;
71622;SDS011;59473;53.214;5.728;2024-02-15T13:17:12;39.37;;;14.27;;
71622;SDS011;59473;53.214;5.728;2024-02-15T13:19:37;35.50;;;13.80;;
71622;SDS011;59473;53.214;5.728;2024-02-15T13:22:02;37.38;;;14.93;;
71622;SDS011;59473;53.214;5.728;2024-02-15T13:24:28;36.63;;;14.13;;
71622;SDS011;59473;53.214;5.728;2024-02-15T13:26:53;40.93;;;14.87;;
71622;SDS011;59473;53.214;5.728;2024-02-15T13:29:18;38.77;;;13.50;;
71622;SDS011;59473;53.214;5.728;2024-02-15T13:31:45;45.13;;;14.95;;
71622;SDS011;59473;53.214;5.728;2024-02-15T13:34:10;34.77;;;14.43;;
71622;SDS011;59473;53.214;5.728;2024-02-15T13:36:37;42.23;;;14.63;;
71622;SDS011;59473;53.214;5.728;2024-02-15T13:39:02;32.58;;;14.18;;
71622;SDS011;59473;53.214;5.728;2024-02-15T13:41:29;48.67;;;15.93;;
71622;SDS011;59473;53.214;5.728;2024-02-15T13:43:55;44.90;;;15.87;;
71622;SDS011;59473;53.214;5.728;2024-02-15T13:46:20;40.47;;;15.63;;
71622;SDS011;59473;53.214;5.728;2024-02-15T13:48:45;39.57;;;15.00;;
71622;SDS011;59473;53.214;5.728;2024-02-15T13:51:10;48.30;;;18.00;;
71622;SDS011;59473;53.214;5.728;2024-02-15T13:53:36;38.03;;;15.00;;
71622;SDS011;59473;53.214;5.728;2024-02-15T13:56:01;45.77;;;16.00;;
71622;SDS011;59473;53.214;5.728;2024-02-15T13:58:26;46.53;;;15.63;;
71622;SDS011;59473;53.214;5.728;2024-02-15T14:00:51;37.23;;;15.57;;
71622;SDS011;59473;53.214;5.728;2024-02-15T14:03:17;39.35;;;15.45;;
71622;SDS011;59473;53.214;5.728;2024-02-15T14:05:43;45.08;;;14.98;;
71622;SDS011;59473;53.214;5.728;2024-02-15T14:08:10;43.60;;;16.00;;
71622;SDS011;59473;53.214;5.728;2024-02-15T14:10:36;40.90;;;15.20;;
71622;SDS011;59473;53.214;5.728;2024-02-15T14:13:01;42.00;;;14.63;;
71622;SDS011;59473;53.214;5.728;2024-02-15T14:15:27;40.13;;;13.73;;
71622;SDS011;59473;53.214;5.728;2024-02-15T14:17:53;30.87;;;14.03;;
71622;SDS011;59473;53.214;5.728;2024-02-15T14:20:18;48.75;;;14.60;;
71622;SDS011;59473;53.214;5.728;2024-02-15T14:22:46;33.00;;;14.23;;
71622;SDS011;59473;53.214;5.728;2024-02-15T14:25:18;35.90;;;14.20;;
71622;SDS011;59473;53.214;5.728;2024-02-15T14:27:44;39.10;;;14.60;;
71622;SDS011;59473;53.214;5.728;2024-02-15T14:30:09;41.28;;;14.82;;
71622;SDS011;59473;53.214;5.728;2024-02-15T14:32:53;35.67;;;13.87;;
71622;SDS011;59473;53.214;5.728;2024-02-15T14:35:25;36.03;;;12.93;;